sensor_id;sensor_type;location;lat;lon;timestamp;temperature;humidity
67799;SHT30;54596;43.216;27.904;2022-08-03T00:01:27;22.51;81.35
67799;SHT30;54596;43.216;27.904;2022-08-03T00:03:53;22.50;81.58
67799;SHT30;54596;43.216;27.904;2022-08-03T00:06:18;22.55;81.77
67799;SHT30;54596;43.216;27.904;2022-08-03T00:08:44;22.55;81.80
67799;SHT30;54596;43.216;27.904;2022-08-03T00:11:09;22.55;79.78
67799;SHT30;54596;43.216;27.904;2022-08-03T00:13:35;22.55;80.13
67799;SHT30;54596;43.216;27.904;2022-08-03T00:16:00;22.61;78.42
67799;SHT30;54596;43.216;27.904;2022-08-03T00:18:26;22.60;78.20
67799;SHT30;54596;43.216;27.904;2022-08-03T00:20:51;22.55;78.24
67799;SHT30;54596;43.216;27.904;2022-08-03T00:23:17;22.55;78.34
67799;SHT30;54596;43.216;27.904;2022-08-03T00:25:42;22.48;78.64
67799;SHT30;54596;43.216;27.904;2022-08-03T00:28:08;22.54;78.54
67799;SHT30;54596;43.216;27.904;2022-08-03T00:30:33;22.55;78.59
67799;SHT30;54596;43.216;27.904;2022-08-03T00:32:59;22.54;78.65
67799;SHT30;54596;43.216;27.904;2022-08-03T00:35:25;22.51;78.63
67799;SHT30;54596;43.216;27.904;2022-08-03T00:37:51;22.47;78.10
67799;SHT30;54596;43.216;27.904;2022-08-03T00:40:18;22.45;75.07
67799;SHT30;54596;43.216;27.904;2022-08-03T00:42:49;22.45;75.48
67799;SHT30;54596;43.216;27.904;2022-08-03T00:45:16;22.50;76.39
67799;SHT30;54596;43.216;27.904;2022-08-03T00:47:42;22.45;76.50
67799;SHT30;54596;43.216;27.904;2022-08-03T00:50:08;22.44;76.33
67799;SHT30;54596;43.216;27.904;2022-08-03T00:52:34;22.43;75.69
67799;SHT30;54596;43.216;27.904;2022-08-03T00:55:01;22.43;73.99
67799;SHT30;54596;43.216;27.904;2022-08-03T00:57:29;22.47;73.49
67799;SHT30;54596;43.216;27.904;2022-08-03T00:59:56;22.47;73.65
67799;SHT30;54596;43.216;27.904;2022-08-03T01:02:21;22.48;73.92
67799;SHT30;54596;43.216;27.904;2022-08-03T01:04:46;22.44;73.84
67799;SHT30;54596;43.216;27.904;2022-08-03T01:10:07;22.39;73.12
67799;SHT30;54596;43.216;27.904;2022-08-03T01:12:40;22.33;73.28
67799;SHT30;54596;43.216;27.904;2022-08-03T01:17:53;22.33;72.69
67799;SHT30;54596;43.216;27.904;2022-08-03T01:20:21;22.27;72.69
67799;SHT30;54596;43.216;27.904;2022-08-03T01:23:19;22.27;72.79
67799;SHT30;54596;43.216;27.904;2022-08-03T01:28:47;22.29;72.28
67799;SHT30;54596;43.216;27.904;2022-08-03T01:31:22;22.19;72.55
67799;SHT30;54596;43.216;27.904;2022-08-03T01:33:56;22.17;72.62
67799;SHT30;54596;43.216;27.904;2022-08-03T01:36:25;22.13;72.78
67799;SHT30;54596;43.216;27.904;2022-08-03T01:38:55;22.19;72.43
67799;SHT30;54596;43.216;27.904;2022-08-03T01:41:30;22.19;72.63
67799;SHT30;54596;43.216;27.904;2022-08-03T01:43:58;22.14;73.02
67799;SHT30;54596;43.216;27.904;2022-08-03T01:46:25;22.17;75.17
67799;SHT30;54596;43.216;27.904;2022-08-03T01:48:51;22.16;75.45
67799;SHT30;54596;43.216;27.904;2022-08-03T01:51:19;22.10;75.60
67799;SHT30;54596;43.216;27.904;2022-08-03T01:53:45;22.06;74.76
67799;SHT30;54596;43.216;27.904;2022-08-03T01:56:13;22.03;74.58
67799;SHT30;54596;43.216;27.904;2022-08-03T01:58:41;21.99;74.96
67799;SHT30;54596;43.216;27.904;2022-08-03T02:01:09;21.93;75.50
67799;SHT30;54596;43.216;27.904;2022-08-03T02:03:37;21.96;75.87
67799;SHT30;54596;43.216;27.904;2022-08-03T02:06:04;21.95;76.50
67799;SHT30;54596;43.216;27.904;2022-08-03T02:08:31;21.95;76.51
67799;SHT30;54596;43.216;27.904;2022-08-03T02:10:57;21.89;76.75
67799;SHT30;54596;43.216;27.904;2022-08-03T02:13:23;21.89;76.62
67799;SHT30;54596;43.216;27.904;2022-08-03T02:15:50;21.82;76.79
67799;SHT30;54596;43.216;27.904;2022-08-03T02:18:18;21.75;76.79
67799;SHT30;54596;43.216;27.904;2022-08-03T02:20:45;21.75;76.18
67799;SHT30;54596;43.216;27.904;2022-08-03T02:23:14;21.73;76.23
67799;SHT30;54596;43.216;27.904;2022-08-03T02:25:50;21.69;75.76
67799;SHT30;54596;43.216;27.904;2022-08-03T02:28:19;21.67;75.91
67799;SHT30;54596;43.216;27.904;2022-08-03T02:30:52;21.67;75.43
67799;SHT30;54596;43.216;27.904;2022-08-03T02:33:24;21.68;75.21
67799;SHT30;54596;43.216;27.904;2022-08-03T02:35:52;21.69;74.86
67799;SHT30;54596;43.216;27.904;2022-08-03T02:38:20;21.77;74.54
67799;SHT30;54596;43.216;27.904;2022-08-03T02:40:49;21.74;74.71
67799;SHT30;54596;43.216;27.904;2022-08-03T02:43:19;21.67;74.92
67799;SHT30;54596;43.216;27.904;2022-08-03T02:45:47;21.62;74.92
67799;SHT30;54596;43.216;27.904;2022-08-03T02:48:19;21.59;74.80
67799;SHT30;54596;43.216;27.904;2022-08-03T02:50:47;21.57;74.62
67799;SHT30;54596;43.216;27.904;2022-08-03T02:53:15;21.51;74.50
67799;SHT30;54596;43.216;27.904;2022-08-03T02:55:42;21.53;74.51
67799;SHT30;54596;43.216;27.904;2022-08-03T02:58:08;21.54;74.33
67799;SHT30;54596;43.216;27.904;2022-08-03T03:00:36;21.58;73.68
67799;SHT30;54596;43.216;27.904;2022-08-03T03:03:03;21.53;73.90
67799;SHT30;54596;43.216;27.904;2022-08-03T03:05:30;21.54;73.50
67799;SHT30;54596;43.216;27.904;2022-08-03T03:07:57;21.53;73.42
67799;SHT30;54596;43.216;27.904;2022-08-03T03:10:23;21.53;73.62
67799;SHT30;54596;43.216;27.904;2022-08-03T03:12:51;21.51;73.51
67799;SHT30;54596;43.216;27.904;2022-08-03T03:15:17;21.55;73.46
67799;SHT30;54596;43.216;27.904;2022-08-03T03:17:43;21.62;73.33
67799;SHT30;54596;43.216;27.904;2022-08-03T03:20:10;21.64;73.31
67799;SHT30;54596;43.216;27.904;2022-08-03T03:22:36;21.64;72.90
67799;SHT30;54596;43.216;27.904;2022-08-03T03:25:02;21.62;72.89
67799;SHT30;54596;43.216;27.904;2022-08-03T03:27:30;21.57;73.08
67799;SHT30;54596;43.216;27.904;2022-08-03T03:29:56;21.59;72.03
67799;SHT30;54596;43.216;27.904;2022-08-03T03:32:40;21.64;72.40
67799;SHT30;54596;43.216;27.904;2022-08-03T03:35:07;21.64;72.30
67799;SHT30;54596;43.216;27.904;2022-08-03T03:37:34;21.69;72.25
67799;SHT30;54596;43.216;27.904;2022-08-03T03:39:59;21.73;72.09
67799;SHT30;54596;43.216;27.904;2022-08-03T03:42:25;21.74;72.15
67799;SHT30;54596;43.216;27.904;2022-08-03T03:44:51;21.78;71.72
67799;SHT30;54596;43.216;27.904;2022-08-03T03:47:17;21.92;71.45
67799;SHT30;54596;43.216;27.904;2022-08-03T03:49:42;21.99;70.46
67799;SHT30;54596;43.216;27.904;2022-08-03T03:52:09;22.12;69.96
67799;SHT30;54596;43.216;27.904;2022-08-03T03:54:42;22.12;70.11
67799;SHT30;54596;43.216;27.904;2022-08-03T03:57:08;22.12;70.23
67799;SHT30;54596;43.216;27.904;2022-08-03T03:59:38;22.20;70.03
67799;SHT30;54596;43.216;27.904;2022-08-03T04:02:05;22.24;69.60
67799;SHT30;54596;43.216;27.904;2022-08-03T04:04:31;22.26;69.57
67799;SHT30;54596;43.216;27.904;2022-08-03T04:07:16;22.29;69.15
67799;SHT30;54596;43.216;27.904;2022-08-03T04:10:03;22.30;69.61
67799;SHT30;54596;43.216;27.904;2022-08-03T04:12:50;22.36;69.43
67799;SHT30;54596;43.216;27.904;2022-08-03T04:15:21;22.40;69.12
67799;SHT30;54596;43.216;27.904;2022-08-03T04:17:48;22.45;68.59
67799;SHT30;54596;43.216;27.904;2022-08-03T04:20:16;22.53;68.69
67799;SHT30;54596;43.216;27.904;2022-08-03T04:22:47;22.54;68.50
67799;SHT30;54596;43.216;27.904;2022-08-03T04:25:15;22.55;68.39
67799;SHT30;54596;43.216;27.904;2022-08-03T04:27:43;22.67;68.18
67799;SHT30;54596;43.216;27.904;2022-08-03T04:30:11;22.65;68.05
67799;SHT30;54596;43.216;27.904;2022-08-03T04:32:37;22.69;68.51
67799;SHT30;54596;43.216;27.904;2022-08-03T04:35:05;22.81;68.73
67799;SHT30;54596;43.216;27.904;2022-08-03T04:37:50;22.85;68.44
67799;SHT30;54596;43.216;27.904;2022-08-03T04:40:35;22.89;68.16
67799;SHT30;54596;43.216;27.904;2022-08-03T04:43:01;23.06;67.96
67799;SHT30;54596;43.216;27.904;2022-08-03T04:45:28;23.15;68.07
67799;SHT30;54596;43.216;27.904;2022-08-03T04:47:55;23.22;66.70
67799;SHT30;54596;43.216;27.904;2022-08-03T04:50:21;23.30;66.36
67799;SHT30;54596;43.216;27.904;2022-08-03T04:52:47;23.33;66.60
67799;SHT30;54596;43.216;27.904;2022-08-03T04:55:27;23.48;65.97
67799;SHT30;54596;43.216;27.904;2022-08-03T04:57:53;23.54;66.14
67799;SHT30;54596;43.216;27.904;2022-08-03T05:00:19;23.62;66.24
67799;SHT30;54596;43.216;27.904;2022-08-03T05:02:44;23.68;65.22
67799;SHT30;54596;43.216;27.904;2022-08-03T05:05:10;23.72;65.03
67799;SHT30;54596;43.216;27.904;2022-08-03T05:07:36;23.81;65.38
67799;SHT30;54596;43.216;27.904;2022-08-03T05:10:06;23.96;64.79
67799;SHT30;54596;43.216;27.904;2022-08-03T05:12:32;24.08;64.06
67799;SHT30;54596;43.216;27.904;2022-08-03T05:14:58;24.17;63.95
67799;SHT30;54596;43.216;27.904;2022-08-03T05:17:23;24.33;63.77
67799;SHT30;54596;43.216;27.904;2022-08-03T05:19:48;24.44;62.46
67799;SHT30;54596;43.216;27.904;2022-08-03T05:22:14;24.67;61.87
67799;SHT30;54596;43.216;27.904;2022-08-03T05:24:39;24.92;60.93
67799;SHT30;54596;43.216;27.904;2022-08-03T05:27:05;25.10;60.79
67799;SHT30;54596;43.216;27.904;2022-08-03T05:29:30;25.27;59.53
67799;SHT30;54596;43.216;27.904;2022-08-03T05:31:56;25.41;58.04
67799;SHT30;54596;43.216;27.904;2022-08-03T05:34:21;25.99;56.91
67799;SHT30;54596;43.216;27.904;2022-08-03T05:36:47;27.78;52.56
67799;SHT30;54596;43.216;27.904;2022-08-03T05:39:12;30.80;46.58
67799;SHT30;54596;43.216;27.904;2022-08-03T05:41:38;33.17;42.30
67799;SHT30;54596;43.216;27.904;2022-08-03T05:44:03;34.47;39.27
67799;SHT30;54596;43.216;27.904;2022-08-03T05:46:29;35.06;37.34
67799;SHT30;54596;43.216;27.904;2022-08-03T05:48:54;35.44;36.86
67799;SHT30;54596;43.216;27.904;2022-08-03T05:51:20;35.12;37.01
67799;SHT30;54596;43.216;27.904;2022-08-03T05:53:45;35.17;36.57
67799;SHT30;54596;43.216;27.904;2022-08-03T05:56:11;36.51;35.14
67799;SHT30;54596;43.216;27.904;2022-08-03T05:58:36;36.99;34.65
67799;SHT30;54596;43.216;27.904;2022-08-03T06:01:02;36.67;35.30
67799;SHT30;54596;43.216;27.904;2022-08-03T06:03:27;36.27;35.35
67799;SHT30;54596;43.216;27.904;2022-08-03T06:05:53;36.50;34.61
67799;SHT30;54596;43.216;27.904;2022-08-03T06:08:21;36.99;34.12
67799;SHT30;54596;43.216;27.904;2022-08-03T06:10:47;38.11;32.96
67799;SHT30;54596;43.216;27.904;2022-08-03T06:13:12;38.63;31.97
67799;SHT30;54596;43.216;27.904;2022-08-03T06:15:37;39.37;31.61
67799;SHT30;54596;43.216;27.904;2022-08-03T06:18:03;39.60;31.28
67799;SHT30;54596;43.216;27.904;2022-08-03T06:20:29;39.40;31.25
67799;SHT30;54596;43.216;27.904;2022-08-03T06:22:54;40.02;30.79
67799;SHT30;54596;43.216;27.904;2022-08-03T06:25:20;40.05;30.35
67799;SHT30;54596;43.216;27.904;2022-08-03T06:27:45;38.67;31.77
67799;SHT30;54596;43.216;27.904;2022-08-03T06:30:11;36.85;33.44
67799;SHT30;54596;43.216;27.904;2022-08-03T06:32:38;37.31;33.58
67799;SHT30;54596;43.216;27.904;2022-08-03T06:35:05;37.34;33.19
67799;SHT30;54596;43.216;27.904;2022-08-03T06:37:40;36.96;33.45
67799;SHT30;54596;43.216;27.904;2022-08-03T06:40:06;36.77;33.50
67799;SHT30;54596;43.216;27.904;2022-08-03T06:42:31;36.22;34.13
67799;SHT30;54596;43.216;27.904;2022-08-03T06:44:57;36.98;33.61
67799;SHT30;54596;43.216;27.904;2022-08-03T06:47:22;38.11;31.72
67799;SHT30;54596;43.216;27.904;2022-08-03T06:49:48;39.30;30.10
67799;SHT30;54596;43.216;27.904;2022-08-03T06:52:13;39.27;29.63
67799;SHT30;54596;43.216;27.904;2022-08-03T06:54:39;39.50;29.55
67799;SHT30;54596;43.216;27.904;2022-08-03T06:57:04;39.35;29.89
67799;SHT30;54596;43.216;27.904;2022-08-03T06:59:30;39.75;29.57
67799;SHT30;54596;43.216;27.904;2022-08-03T07:01:55;40.04;28.71
67799;SHT30;54596;43.216;27.904;2022-08-03T07:04:21;40.23;28.54
67799;SHT30;54596;43.216;27.904;2022-08-03T07:06:46;38.49;29.66
67799;SHT30;54596;43.216;27.904;2022-08-03T07:09:11;39.99;28.78
67799;SHT30;54596;43.216;27.904;2022-08-03T07:11:37;39.47;28.82
67799;SHT30;54596;43.216;27.904;2022-08-03T07:14:02;40.04;28.24
67799;SHT30;54596;43.216;27.904;2022-08-03T07:16:28;41.02;27.81
67799;SHT30;54596;43.216;27.904;2022-08-03T07:18:53;40.66;28.02
67799;SHT30;54596;43.216;27.904;2022-08-03T07:21:19;39.13;29.09
67799;SHT30;54596;43.216;27.904;2022-08-03T07:23:44;39.77;28.17
67799;SHT30;54596;43.216;27.904;2022-08-03T07:26:10;40.80;27.20
67799;SHT30;54596;43.216;27.904;2022-08-03T07:28:36;40.63;26.92
67799;SHT30;54596;43.216;27.904;2022-08-03T07:31:02;40.28;27.25
67799;SHT30;54596;43.216;27.904;2022-08-03T07:33:27;39.58;27.49
67799;SHT30;54596;43.216;27.904;2022-08-03T07:35:52;39.13;28.11
67799;SHT30;54596;43.216;27.904;2022-08-03T07:38:18;40.80;27.27
67799;SHT30;54596;43.216;27.904;2022-08-03T07:40:43;42.87;25.84
67799;SHT30;54596;43.216;27.904;2022-08-03T07:43:09;42.01;25.96
67799;SHT30;54596;43.216;27.904;2022-08-03T07:45:34;40.39;27.32
67799;SHT30;54596;43.216;27.904;2022-08-03T07:48:00;40.90;27.05
67799;SHT30;54596;43.216;27.904;2022-08-03T07:50:26;41.81;26.72
67799;SHT30;54596;43.216;27.904;2022-08-03T07:52:51;41.98;26.30
67799;SHT30;54596;43.216;27.904;2022-08-03T07:55:20;42.56;25.64
67799;SHT30;54596;43.216;27.904;2022-08-03T07:57:57;41.81;26.05
67799;SHT30;54596;43.216;27.904;2022-08-03T08:00:23;41.82;25.94
67799;SHT30;54596;43.216;27.904;2022-08-03T08:02:48;41.84;25.54
67799;SHT30;54596;43.216;27.904;2022-08-03T08:05:14;41.50;26.06
67799;SHT30;54596;43.216;27.904;2022-08-03T08:07:39;40.02;27.49
67799;SHT30;54596;43.216;27.904;2022-08-03T08:10:07;39.77;27.91
67799;SHT30;54596;43.216;27.904;2022-08-03T08:12:34;40.83;27.29
67799;SHT30;54596;43.216;27.904;2022-08-03T08:15:00;40.08;27.68
67799;SHT30;54596;43.216;27.904;2022-08-03T08:17:26;37.25;30.06
67799;SHT30;54596;43.216;27.904;2022-08-03T08:19:51;36.51;30.81
67799;SHT30;54596;43.216;27.904;2022-08-03T08:22:17;35.03;32.85
67799;SHT30;54596;43.216;27.904;2022-08-03T08:24:43;34.26;34.06
67799;SHT30;54596;43.216;27.904;2022-08-03T08:27:09;34.81;33.77
67799;SHT30;54596;43.216;27.904;2022-08-03T08:29:37;35.40;32.47
67799;SHT30;54596;43.216;27.904;2022-08-03T08:32:02;35.26;32.03
67799;SHT30;54596;43.216;27.904;2022-08-03T08:34:28;34.39;33.17
67799;SHT30;54596;43.216;27.904;2022-08-03T08:36:53;33.50;34.77
67799;SHT30;54596;43.216;27.904;2022-08-03T08:39:19;32.99;35.06
67799;SHT30;54596;43.216;27.904;2022-08-03T08:41:44;32.52;36.02
67799;SHT30;54596;43.216;27.904;2022-08-03T08:44:10;32.67;36.40
67799;SHT30;54596;43.216;27.904;2022-08-03T08:46:36;32.68;34.80
67799;SHT30;54596;43.216;27.904;2022-08-03T08:49:02;33.41;34.40
67799;SHT30;54596;43.216;27.904;2022-08-03T08:51:33;33.98;32.54
67799;SHT30;54596;43.216;27.904;2022-08-03T08:54:02;33.98;32.63
67799;SHT30;54596;43.216;27.904;2022-08-03T08:56:31;33.96;32.78
67799;SHT30;54596;43.216;27.904;2022-08-03T08:58:59;34.00;33.18
67799;SHT30;54596;43.216;27.904;2022-08-03T09:01:25;33.85;33.10
67799;SHT30;54596;43.216;27.904;2022-08-03T09:03:52;33.69;33.85
67799;SHT30;54596;43.216;27.904;2022-08-03T09:06:23;33.54;33.85
67799;SHT30;54596;43.216;27.904;2022-08-03T09:08:48;33.64;33.08
67799;SHT30;54596;43.216;27.904;2022-08-03T09:11:14;33.37;33.36
67799;SHT30;54596;43.216;27.904;2022-08-03T09:13:39;33.02;33.55
67799;SHT30;54596;43.216;27.904;2022-08-03T09:16:09;32.78;34.86
67799;SHT30;54596;43.216;27.904;2022-08-03T09:18:36;32.78;35.07
67799;SHT30;54596;43.216;27.904;2022-08-03T09:21:23;32.40;36.06
67799;SHT30;54596;43.216;27.904;2022-08-03T09:23:54;32.33;35.90
67799;SHT30;54596;43.216;27.904;2022-08-03T09:26:26;32.41;35.62
67799;SHT30;54596;43.216;27.904;2022-08-03T09:31:33;32.13;35.69
67799;SHT30;54596;43.216;27.904;2022-08-03T09:34:04;31.90;34.76
67799;SHT30;54596;43.216;27.904;2022-08-03T09:36:42;32.03;34.77
67799;SHT30;54596;43.216;27.904;2022-08-03T09:39:10;32.03;34.68
67799;SHT30;54596;43.216;27.904;2022-08-03T09:41:41;32.09;34.04
67799;SHT30;54596;43.216;27.904;2022-08-03T09:44:07;32.20;33.86
67799;SHT30;54596;43.216;27.904;2022-08-03T09:46:53;32.17;33.98
67799;SHT30;54596;43.216;27.904;2022-08-03T09:49:20;32.10;34.19
67799;SHT30;54596;43.216;27.904;2022-08-03T09:51:46;32.06;34.12
67799;SHT30;54596;43.216;27.904;2022-08-03T09:54:12;31.58;35.42
67799;SHT30;54596;43.216;27.904;2022-08-03T09:56:49;31.33;40.52
67799;SHT30;54596;43.216;27.904;2022-08-03T09:59:23;31.09;44.94
67799;SHT30;54596;43.216;27.904;2022-08-03T10:01:49;30.68;46.98
67799;SHT30;54596;43.216;27.904;2022-08-03T10:04:15;30.67;47.05
67799;SHT30;54596;43.216;27.904;2022-08-03T10:06:44;30.48;46.07
67799;SHT30;54596;43.216;27.904;2022-08-03T10:09:15;30.09;46.80
67799;SHT30;54596;43.216;27.904;2022-08-03T10:11:42;29.65;47.55
67799;SHT30;54596;43.216;27.904;2022-08-03T10:14:11;29.33;49.78
67799;SHT30;54596;43.216;27.904;2022-08-03T10:16:43;28.91;50.75
67799;SHT30;54596;43.216;27.904;2022-08-03T10:19:10;28.79;50.54
67799;SHT30;54596;43.216;27.904;2022-08-03T10:21:41;28.64;54.51
67799;SHT30;54596;43.216;27.904;2022-08-03T10:24:08;28.55;54.61
67799;SHT30;54596;43.216;27.904;2022-08-03T10:26:38;28.38;55.29
67799;SHT30;54596;43.216;27.904;2022-08-03T10:29:11;28.30;57.15
67799;SHT30;54596;43.216;27.904;2022-08-03T10:31:43;28.40;58.05
67799;SHT30;54596;43.216;27.904;2022-08-03T10:34:16;28.23;57.45
67799;SHT30;54596;43.216;27.904;2022-08-03T10:36:43;28.16;57.44
67799;SHT30;54596;43.216;27.904;2022-08-03T10:39:11;28.18;57.09
67799;SHT30;54596;43.216;27.904;2022-08-03T10:41:39;28.13;56.28
67799;SHT30;54596;43.216;27.904;2022-08-03T10:44:14;28.17;55.77
67799;SHT30;54596;43.216;27.904;2022-08-03T10:46:42;27.90;58.87
67799;SHT30;54596;43.216;27.904;2022-08-03T10:49:12;27.89;59.79
67799;SHT30;54596;43.216;27.904;2022-08-03T10:51:39;27.95;59.22
67799;SHT30;54596;43.216;27.904;2022-08-03T10:54:05;28.10;59.43
67799;SHT30;54596;43.216;27.904;2022-08-03T10:59:15;27.99;58.00
67799;SHT30;54596;43.216;27.904;2022-08-03T11:01:51;28.07;58.42
67799;SHT30;54596;43.216;27.904;2022-08-03T11:04:20;28.21;57.84
67799;SHT30;54596;43.216;27.904;2022-08-03T11:07:23;28.30;57.39
67799;SHT30;54596;43.216;27.904;2022-08-03T11:09:51;28.34;58.15
67799;SHT30;54596;43.216;27.904;2022-08-03T11:12:25;28.30;58.19
67799;SHT30;54596;43.216;27.904;2022-08-03T11:14:52;28.27;58.25
67799;SHT30;54596;43.216;27.904;2022-08-03T11:17:18;28.28;57.96
67799;SHT30;54596;43.216;27.904;2022-08-03T11:19:45;27.96;59.03
67799;SHT30;54596;43.216;27.904;2022-08-03T11:22:11;27.81;59.07
67799;SHT30;54596;43.216;27.904;2022-08-03T11:27:17;27.73;60.04
67799;SHT30;54596;43.216;27.904;2022-08-03T11:35:20;27.78;59.91
67799;SHT30;54596;43.216;27.904;2022-08-03T11:42:58;27.27;60.30
67799;SHT30;54596;43.216;27.904;2022-08-03T11:45:24;27.18;59.47
67799;SHT30;54596;43.216;27.904;2022-08-03T11:47:53;27.23;59.97
67799;SHT30;54596;43.216;27.904;2022-08-03T11:50:19;27.30;59.19
67799;SHT30;54596;43.216;27.904;2022-08-03T11:52:45;26.98;59.49
67799;SHT30;54596;43.216;27.904;2022-08-03T11:55:13;27.09;59.57
67799;SHT30;54596;43.216;27.904;2022-08-03T11:57:39;27.27;58.40
67799;SHT30;54596;43.216;27.904;2022-08-03T12:00:26;27.14;57.98
67799;SHT30;54596;43.216;27.904;2022-08-03T12:03:05;27.22;58.90
67799;SHT30;54596;43.216;27.904;2022-08-03T12:05:39;27.07;58.84
67799;SHT30;54596;43.216;27.904;2022-08-03T12:08:06;27.18;58.76
67799;SHT30;54596;43.216;27.904;2022-08-03T12:10:33;27.17;59.16
67799;SHT30;54596;43.216;27.904;2022-08-03T12:12:59;27.13;59.04
67799;SHT30;54596;43.216;27.904;2022-08-03T12:15:27;26.98;60.33
67799;SHT30;54596;43.216;27.904;2022-08-03T12:17:55;27.04;59.48
67799;SHT30;54596;43.216;27.904;2022-08-03T12:20:23;27.03;59.15
67799;SHT30;54596;43.216;27.904;2022-08-03T12:22:49;27.04;59.53
67799;SHT30;54596;43.216;27.904;2022-08-03T12:25:23;26.99;59.01
67799;SHT30;54596;43.216;27.904;2022-08-03T12:27:50;27.00;59.09
67799;SHT30;54596;43.216;27.904;2022-08-03T12:30:17;27.18;59.14
67799;SHT30;54596;43.216;27.904;2022-08-03T12:32:43;27.34;58.56
67799;SHT30;54596;43.216;27.904;2022-08-03T12:35:09;27.11;58.30
67799;SHT30;54596;43.216;27.904;2022-08-03T12:37:35;27.00;59.18
67799;SHT30;54596;43.216;27.904;2022-08-03T12:40:03;26.91;59.60
67799;SHT30;54596;43.216;27.904;2022-08-03T12:42:31;26.91;59.73
67799;SHT30;54596;43.216;27.904;2022-08-03T12:44:56;26.86;59.77
67799;SHT30;54596;43.216;27.904;2022-08-03T12:47:22;26.99;59.19
67799;SHT30;54596;43.216;27.904;2022-08-03T12:49:52;26.92;59.77
67799;SHT30;54596;43.216;27.904;2022-08-03T12:52:19;26.89;59.63
67799;SHT30;54596;43.216;27.904;2022-08-03T12:54:59;26.85;60.74
67799;SHT30;54596;43.216;27.904;2022-08-03T12:57:25;26.89;60.03
67799;SHT30;54596;43.216;27.904;2022-08-03T13:00:15;26.92;59.40
67799;SHT30;54596;43.216;27.904;2022-08-03T13:02:41;27.04;59.37
67799;SHT30;54596;43.216;27.904;2022-08-03T13:05:14;27.09;59.82
67799;SHT30;54596;43.216;27.904;2022-08-03T13:07:44;26.92;59.83
67799;SHT30;54596;43.216;27.904;2022-08-03T13:10:11;26.91;59.97
67799;SHT30;54596;43.216;27.904;2022-08-03T13:12:47;26.96;59.14
67799;SHT30;54596;43.216;27.904;2022-08-03T13:15:13;26.88;58.11
67799;SHT30;54596;43.216;27.904;2022-08-03T13:17:39;26.76;58.99
67799;SHT30;54596;43.216;27.904;2022-08-03T13:20:05;26.79;59.19
67799;SHT30;54596;43.216;27.904;2022-08-03T13:22:30;26.79;59.65
67799;SHT30;54596;43.216;27.904;2022-08-03T13:24:59;26.86;59.19
67799;SHT30;54596;43.216;27.904;2022-08-03T13:27:26;26.89;58.50
67799;SHT30;54596;43.216;27.904;2022-08-03T13:29:53;26.83;58.36
67799;SHT30;54596;43.216;27.904;2022-08-03T13:32:19;26.85;58.94
67799;SHT30;54596;43.216;27.904;2022-08-03T13:34:45;26.91;59.04
67799;SHT30;54596;43.216;27.904;2022-08-03T13:37:11;26.74;59.55
67799;SHT30;54596;43.216;27.904;2022-08-03T13:39:37;26.74;59.46
67799;SHT30;54596;43.216;27.904;2022-08-03T13:42:03;26.62;59.80
67799;SHT30;54596;43.216;27.904;2022-08-03T13:44:30;26.69;59.40
67799;SHT30;54596;43.216;27.904;2022-08-03T13:46:56;26.75;59.75
67799;SHT30;54596;43.216;27.904;2022-08-03T13:49:21;26.75;58.60
67799;SHT30;54596;43.216;27.904;2022-08-03T13:51:47;26.67;59.34
67799;SHT30;54596;43.216;27.904;2022-08-03T13:54:12;26.47;58.65
67799;SHT30;54596;43.216;27.904;2022-08-03T13:56:38;26.49;58.83
67799;SHT30;54596;43.216;27.904;2022-08-03T13:59:03;26.54;58.40
67799;SHT30;54596;43.216;27.904;2022-08-03T14:01:30;26.49;59.23
67799;SHT30;54596;43.216;27.904;2022-08-03T14:03:55;26.48;59.52
67799;SHT30;54596;43.216;27.904;2022-08-03T14:06:23;26.49;58.88
67799;SHT30;54596;43.216;27.904;2022-08-03T14:08:49;26.54;58.45
67799;SHT30;54596;43.216;27.904;2022-08-03T14:11:16;26.45;59.01
67799;SHT30;54596;43.216;27.904;2022-08-03T14:13:42;26.47;58.37
67799;SHT30;54596;43.216;27.904;2022-08-03T14:16:08;26.47;58.69
67799;SHT30;54596;43.216;27.904;2022-08-03T14:18:33;26.45;58.84
67799;SHT30;54596;43.216;27.904;2022-08-03T14:21:01;26.49;59.14
67799;SHT30;54596;43.216;27.904;2022-08-03T14:23:26;26.48;59.76
67799;SHT30;54596;43.216;27.904;2022-08-03T14:25:52;26.55;59.47
67799;SHT30;54596;43.216;27.904;2022-08-03T14:28:21;26.58;59.12
67799;SHT30;54596;43.216;27.904;2022-08-03T14:30:47;26.62;59.61
67799;SHT30;54596;43.216;27.904;2022-08-03T14:33:12;26.58;59.50
67799;SHT30;54596;43.216;27.904;2022-08-03T14:35:38;26.51;58.20
67799;SHT30;54596;43.216;27.904;2022-08-03T14:38:04;26.48;58.91
67799;SHT30;54596;43.216;27.904;2022-08-03T14:40:29;26.44;58.93
67799;SHT30;54596;43.216;27.904;2022-08-03T14:42:54;26.34;58.28
67799;SHT30;54596;43.216;27.904;2022-08-03T14:45:20;26.29;58.58
67799;SHT30;54596;43.216;27.904;2022-08-03T14:47:46;26.37;58.96
67799;SHT30;54596;43.216;27.904;2022-08-03T14:50:11;26.33;59.69
67799;SHT30;54596;43.216;27.904;2022-08-03T14:52:37;26.27;59.42
67799;SHT30;54596;43.216;27.904;2022-08-03T14:55:02;26.26;59.93
67799;SHT30;54596;43.216;27.904;2022-08-03T14:57:28;26.29;59.73
67799;SHT30;54596;43.216;27.904;2022-08-03T14:59:53;26.34;59.35
67799;SHT30;54596;43.216;27.904;2022-08-03T15:02:19;26.36;58.98
67799;SHT30;54596;43.216;27.904;2022-08-03T15:04:44;26.24;59.19
67799;SHT30;54596;43.216;27.904;2022-08-03T15:07:10;26.19;59.03
67799;SHT30;54596;43.216;27.904;2022-08-03T15:09:35;26.19;59.83
67799;SHT30;54596;43.216;27.904;2022-08-03T15:12:04;26.23;59.75
67799;SHT30;54596;43.216;27.904;2022-08-03T15:14:30;26.24;59.77
67799;SHT30;54596;43.216;27.904;2022-08-03T15:16:55;26.33;59.54
67799;SHT30;54596;43.216;27.904;2022-08-03T15:19:21;26.41;59.40
67799;SHT30;54596;43.216;27.904;2022-08-03T15:21:46;26.41;59.31
67799;SHT30;54596;43.216;27.904;2022-08-03T15:24:12;26.40;60.03
67799;SHT30;54596;43.216;27.904;2022-08-03T15:26:37;26.30;60.66
67799;SHT30;54596;43.216;27.904;2022-08-03T15:29:02;26.21;59.80
67799;SHT30;54596;43.216;27.904;2022-08-03T15:31:28;26.09;60.42
67799;SHT30;54596;43.216;27.904;2022-08-03T15:33:53;26.03;59.37
67799;SHT30;54596;43.216;27.904;2022-08-03T15:36:19;26.04;60.51
67799;SHT30;54596;43.216;27.904;2022-08-03T15:38:45;26.03;61.15
67799;SHT30;54596;43.216;27.904;2022-08-03T15:41:12;26.06;61.00
67799;SHT30;54596;43.216;27.904;2022-08-03T15:43:38;26.09;60.27
67799;SHT30;54596;43.216;27.904;2022-08-03T15:46:03;26.04;59.85